createdAt,value
2018-06-10T00:00:04.628Z,19.30
2018-06-10T00:01:05.423Z,19.20
2018-06-10T00:02:05.279Z,19.20
2018-06-10T00:03:05.193Z,19.20
2018-06-10T00:04:04.791Z,19.20
2018-06-10T00:05:04.994Z,19.20
2018-06-10T00:06:05.560Z,19.20
2018-06-10T00:07:05.262Z,19.20
2018-06-10T00:08:05.164Z,19.20
2018-06-10T00:09:05.170Z,19.20
2018-06-10T00:10:06.795Z,19.20
2018-06-10T00:11:04.911Z,19.20
2018-06-10T00:12:04.927Z,19.20
2018-06-10T00:13:04.777Z,19.20
2018-06-10T00:14:05.332Z,19.20
2018-06-10T00:15:05.476Z,19.20
2018-06-10T00:16:05.092Z,19.20
2018-06-10T00:17:05.103Z,19.20
2018-06-10T00:18:05.374Z,19.20
2018-06-10T00:19:04.795Z,19.20
2018-06-10T00:20:04.749Z,19.10
2018-06-10T00:21:05.468Z,19.20
2018-06-10T00:22:04.860Z,19.20
2018-06-10T00:23:04.634Z,19.20
2018-06-10T00:24:05.115Z,19.10
2018-06-10T00:25:04.937Z,19.10
2018-06-10T00:26:05.698Z,19.10
2018-06-10T00:27:05.219Z,19.10
2018-06-10T00:28:05.483Z,19.10
2018-06-10T00:29:05.016Z,19.10
2018-06-10T00:30:05.424Z,19.10
2018-06-10T00:31:05.027Z,19.10
2018-06-10T00:32:04.977Z,19.10
2018-06-10T00:33:05.650Z,19.10
2018-06-10T00:34:05.578Z,19.10
2018-06-10T00:35:04.716Z,19.10
2018-06-10T00:36:04.850Z,19.10
2018-06-10T00:37:05.351Z,19.10
2018-06-10T00:38:04.755Z,19.10
2018-06-10T00:39:05.556Z,19.10
2018-06-10T00:40:05.206Z,19.10
2018-06-10T00:41:04.782Z,19.10
2018-06-10T00:42:05.305Z,19.10
2018-06-10T00:43:04.967Z,19.10
2018-06-10T00:44:05.016Z,19.10
2018-06-10T00:45:05.256Z,19.10
2018-06-10T00:46:04.935Z,19.10
2018-06-10T00:47:04.722Z,19.10
2018-06-10T00:48:05.556Z,19.10
2018-06-10T00:49:05.149Z,19.10
2018-06-10T00:50:05.156Z,19.10
2018-06-10T00:51:05.428Z,19.10
2018-06-10T00:52:05.375Z,19.10
2018-06-10T00:53:05.305Z,19.10
2018-06-10T00:54:05.292Z,19.10
2018-06-10T00:55:05.380Z,19.10
2018-06-10T00:56:04.676Z,19.00
2018-06-10T00:57:05.681Z,19.00
2018-06-10T00:58:05.222Z,19.00
2018-06-10T00:59:04.735Z,19.00
2018-06-10T01:00:05.107Z,19.00
2018-06-10T01:01:05.717Z,19.00
2018-06-10T01:02:05.740Z,19.00
2018-06-10T01:03:04.823Z,19.00
2018-06-10T01:04:05.476Z,19.00
2018-06-10T01:05:05.456Z,19.00
2018-06-10T01:06:05.450Z,19.00
2018-06-10T01:07:05.086Z,19.00
2018-06-10T01:08:05.518Z,19.00
2018-06-10T01:09:04.674Z,19.00
2018-06-10T01:10:04.651Z,19.00
2018-06-10T01:11:04.670Z,19.00
2018-06-10T01:12:05.609Z,19.00
2018-06-10T01:13:05.260Z,19.00
2018-06-10T01:14:05.348Z,19.00
2018-06-10T01:15:05.007Z,19.00
2018-06-10T01:16:05.683Z,19.00
2018-06-10T01:17:05.227Z,18.90
2018-06-10T01:18:04.663Z,18.90
2018-06-10T01:19:04.772Z,18.90
2018-06-10T01:20:04.983Z,18.90
2018-06-10T01:21:04.708Z,18.90
2018-06-10T01:22:04.998Z,18.90
2018-06-10T01:23:05.604Z,18.90
2018-06-10T01:24:04.770Z,18.90
2018-06-10T01:25:04.715Z,18.90
2018-06-10T01:26:05.594Z,18.90
2018-06-10T01:27:05.492Z,18.90
2018-06-10T01:28:05.495Z,18.90
2018-06-10T01:29:05.635Z,18.80
2018-06-10T01:30:05.607Z,18.80
2018-06-10T01:31:05.062Z,18.80
2018-06-10T01:32:04.689Z,18.80
2018-06-10T01:33:06.132Z,18.80
2018-06-10T01:34:05.123Z,18.80
2018-06-10T01:35:04.769Z,18.80
2018-06-10T01:36:05.170Z,18.80
2018-06-10T01:37:05.024Z,18.80
2018-06-10T01:38:05.011Z,18.80
2018-06-10T01:39:05.738Z,18.80
2018-06-10T01:40:05.654Z,18.80
2018-06-10T01:41:05.273Z,18.80
2018-06-10T01:42:04.885Z,18.80
2018-06-10T01:43:05.227Z,18.80
2018-06-10T01:44:05.160Z,18.80
2018-06-10T01:45:04.887Z,18.80
2018-06-10T01:46:05.500Z,18.80
2018-06-10T01:47:04.664Z,18.80
2018-06-10T01:48:04.798Z,18.80
2018-06-10T01:49:04.696Z,18.80
2018-06-10T01:50:05.346Z,18.80
2018-06-10T01:51:05.067Z,18.80
2018-06-10T01:52:04.988Z,18.80
2018-06-10T01:53:05.015Z,18.80
2018-06-10T01:54:05.390Z,18.80
2018-06-10T01:55:04.923Z,18.80
2018-06-10T01:56:04.899Z,18.70
2018-06-10T01:57:05.543Z,18.70
2018-06-10T01:58:04.974Z,18.70
2018-06-10T01:59:04.812Z,18.70
2018-06-10T02:00:04.778Z,18.70
2018-06-10T02:01:05.270Z,18.70
2018-06-10T02:02:05.476Z,18.70
2018-06-10T02:03:05.492Z,18.70
2018-06-10T02:04:05.272Z,18.70
2018-06-10T02:05:04.922Z,18.70
2018-06-10T02:06:05.179Z,18.70
2018-06-10T02:07:04.847Z,18.70
2018-06-10T02:08:04.742Z,18.70
2018-06-10T02:09:05.509Z,18.70
2018-06-10T02:10:04.735Z,18.70
2018-06-10T02:11:05.613Z,18.70
2018-06-10T02:12:05.190Z,18.70
2018-06-10T02:13:05.224Z,18.70
2018-06-10T02:14:05.320Z,18.70
2018-06-10T02:15:05.877Z,18.70
2018-06-10T02:16:04.781Z,18.60
2018-06-10T02:17:04.901Z,18.60
2018-06-10T02:18:05.473Z,18.60
2018-06-10T02:19:04.995Z,18.60
2018-06-10T02:20:06.025Z,18.60
2018-06-10T02:21:05.482Z,18.60
2018-06-10T02:22:05.381Z,18.60
2018-06-10T02:23:05.197Z,18.60
2018-06-10T02:24:05.193Z,18.60
2018-06-10T02:25:05.157Z,18.50
2018-06-10T02:26:04.761Z,18.50
2018-06-10T02:27:04.759Z,18.50
2018-06-10T02:28:04.980Z,18.50
2018-06-10T02:29:04.811Z,18.50
2018-06-10T02:30:05.447Z,18.50
2018-06-10T02:31:04.842Z,18.50
2018-06-10T02:32:05.542Z,18.50
2018-06-10T02:33:05.562Z,18.50
2018-06-10T02:34:04.755Z,18.40
2018-06-10T02:35:05.002Z,18.50
2018-06-10T02:36:05.129Z,18.50
2018-06-10T02:37:05.278Z,18.40
2018-06-10T02:38:05.379Z,18.40
2018-06-10T02:39:05.401Z,18.40
2018-06-10T02:40:05.248Z,18.40
2018-06-10T02:41:05.469Z,18.40
2018-06-10T02:42:05.089Z,18.40
2018-06-10T02:43:05.160Z,18.40
2018-06-10T02:44:05.346Z,18.40
2018-06-10T02:45:05.518Z,18.40
2018-06-10T02:46:05.305Z,18.40
2018-06-10T02:47:04.925Z,18.40
2018-06-10T02:48:05.089Z,18.40
2018-06-10T02:49:05.050Z,18.40
2018-06-10T02:50:04.781Z,18.40
2018-06-10T02:51:05.191Z,18.40
2018-06-10T02:52:05.193Z,18.40
2018-06-10T02:53:05.025Z,18.40
2018-06-10T02:54:04.901Z,18.40
2018-06-10T02:55:05.560Z,18.40
2018-06-10T02:56:04.773Z,18.40
2018-06-10T02:57:05.468Z,18.40
2018-06-10T02:58:05.528Z,18.40
2018-06-10T02:59:05.719Z,18.40
2018-06-10T03:00:05.214Z,18.40
2018-06-10T03:01:05.467Z,18.40
2018-06-10T03:02:05.611Z,18.40
2018-06-10T03:03:06.590Z,18.40
2018-06-10T03:04:04.757Z,18.40
2018-06-10T03:05:04.762Z,18.40
2018-06-10T03:06:05.641Z,18.40
2018-06-10T03:07:04.697Z,18.40
2018-06-10T03:08:04.812Z,18.40
2018-06-10T03:09:05.496Z,18.40
2018-06-10T03:10:05.554Z,18.40
2018-06-10T03:11:05.434Z,18.40
2018-06-10T03:12:05.106Z,18.40
2018-06-10T03:13:05.686Z,18.40
2018-06-10T03:14:04.901Z,18.40
2018-06-10T03:15:05.572Z,18.40
2018-06-10T03:16:04.768Z,18.40
2018-06-10T03:17:05.622Z,18.40
2018-06-10T03:18:05.429Z,18.40
2018-06-10T03:19:05.120Z,18.40
2018-06-10T03:20:05.114Z,18.40
2018-06-10T03:21:05.289Z,18.40
2018-06-10T03:22:05.132Z,18.40
2018-06-10T03:23:05.283Z,18.40
2018-06-10T03:24:05.106Z,18.40
2018-06-10T03:25:04.846Z,18.40
2018-06-10T03:26:04.842Z,18.40
2018-06-10T03:27:05.590Z,18.40
2018-06-10T03:28:05.667Z,18.40
2018-06-10T03:29:04.803Z,18.40
2018-06-10T03:30:05.105Z,18.40
2018-06-10T03:31:05.208Z,18.40
2018-06-10T03:32:04.885Z,18.50
2018-06-10T03:33:05.547Z,18.50
2018-06-10T03:34:05.561Z,18.50
2018-06-10T03:35:05.458Z,18.50
2018-06-10T03:36:05.519Z,18.50
2018-06-10T03:37:05.291Z,18.50
2018-06-10T03:38:05.520Z,18.50
2018-06-10T03:39:04.661Z,18.50
2018-06-10T03:40:04.819Z,18.50
2018-06-10T03:41:05.003Z,18.50
2018-06-10T03:42:05.529Z,18.50
2018-06-10T03:43:05.367Z,18.50
2018-06-10T03:44:05.580Z,18.50
2018-06-10T03:45:05.529Z,18.50
2018-06-10T03:46:05.169Z,18.50
2018-06-10T03:47:05.150Z,18.50
2018-06-10T03:48:05.207Z,18.50
2018-06-10T03:49:05.486Z,18.50
2018-06-10T03:50:05.112Z,18.50
2018-06-10T03:51:05.031Z,18.50
2018-06-10T03:52:05.360Z,18.50
2018-06-10T03:53:05.355Z,18.60
2018-06-10T03:54:05.092Z,18.60
2018-06-10T03:55:04.746Z,18.60
2018-06-10T03:56:04.973Z,18.60
2018-06-10T03:57:05.501Z,18.50
2018-06-10T03:58:04.706Z,18.60
2018-06-10T03:59:04.965Z,18.60
2018-06-10T04:00:05.181Z,18.50
2018-06-10T04:01:04.669Z,18.60
2018-06-10T04:02:04.947Z,18.50
2018-06-10T04:03:05.296Z,18.60
2018-06-10T04:04:05.155Z,18.60
2018-06-10T04:05:05.231Z,18.60
2018-06-10T04:06:05.165Z,18.60
2018-06-10T04:07:05.139Z,18.60
2018-06-10T04:08:04.921Z,18.60
2018-06-10T04:09:04.950Z,18.60
2018-06-10T04:10:05.063Z,18.60
2018-06-10T04:11:05.393Z,18.70
2018-06-10T04:12:05.107Z,18.70
2018-06-10T04:13:05.592Z,18.70
2018-06-10T04:14:05.771Z,18.70
2018-06-10T04:15:05.139Z,18.70
2018-06-10T04:16:04.953Z,18.70
2018-06-10T04:17:05.020Z,18.80
2018-06-10T04:18:05.523Z,18.80
2018-06-10T04:19:05.221Z,18.80
2018-06-10T04:20:05.378Z,18.80
2018-06-10T04:21:05.562Z,18.80
2018-06-10T04:22:05.185Z,18.80
2018-06-10T04:23:05.002Z,18.80
2018-06-10T04:24:05.375Z,18.90
2018-06-10T04:25:05.156Z,18.90
2018-06-10T04:26:05.562Z,18.90
2018-06-10T04:27:04.827Z,18.90
2018-06-10T04:28:04.923Z,18.90
2018-06-10T04:29:05.044Z,18.90
2018-06-10T04:30:04.978Z,18.90
2018-06-10T04:31:04.791Z,19.00
2018-06-10T04:32:05.418Z,19.00
2018-06-10T04:33:05.418Z,19.00
2018-06-10T04:34:05.600Z,19.00
2018-06-10T04:35:05.323Z,19.00
2018-06-10T04:36:05.315Z,19.00
2018-06-10T04:37:04.898Z,19.10
2018-06-10T04:38:04.856Z,19.10
2018-06-10T04:39:05.134Z,19.10
2018-06-10T04:40:05.112Z,19.10
2018-06-10T04:41:04.809Z,19.10
2018-06-10T04:42:04.814Z,19.10
2018-06-10T04:43:05.090Z,19.10
2018-06-10T04:44:05.301Z,19.10
2018-06-10T04:45:05.095Z,19.10
2018-06-10T04:46:05.383Z,19.20
2018-06-10T04:47:06.541Z,19.20
2018-06-10T04:48:05.621Z,19.20
2018-06-10T04:49:05.683Z,19.20
2018-06-10T04:50:04.682Z,19.20
2018-06-10T04:51:04.846Z,19.20
2018-06-10T04:52:04.738Z,19.20
2018-06-10T04:53:05.556Z,19.20
2018-06-10T04:54:05.120Z,19.20
2018-06-10T04:55:05.109Z,19.20
2018-06-10T04:56:05.409Z,19.30
2018-06-10T04:57:05.225Z,19.30
2018-06-10T04:58:04.840Z,19.30
2018-06-10T04:59:05.029Z,19.30
2018-06-10T05:00:04.701Z,19.30
2018-06-10T05:01:05.610Z,19.30
2018-06-10T05:02:05.623Z,19.30
2018-06-10T05:03:04.896Z,19.30
2018-06-10T05:04:04.807Z,19.40
2018-06-10T05:05:04.781Z,19.40
2018-06-10T05:06:04.902Z,19.40
2018-06-10T05:07:05.518Z,19.40
2018-06-10T05:08:05.379Z,19.40
2018-06-10T05:09:04.754Z,19.40
2018-06-10T05:10:05.533Z,19.50
2018-06-10T05:11:05.682Z,19.50
2018-06-10T05:12:05.260Z,19.50
2018-06-10T05:13:05.494Z,19.50
2018-06-10T05:14:05.173Z,19.50
2018-06-10T05:15:05.421Z,19.60
2018-06-10T05:16:05.266Z,19.60
2018-06-10T05:17:05.030Z,19.60
2018-06-10T05:18:05.373Z,19.70
2018-06-10T05:19:05.498Z,19.70
2018-06-10T05:20:05.501Z,19.70
2018-06-10T05:21:05.168Z,19.70
2018-06-10T05:22:04.827Z,19.80
2018-06-10T05:23:04.781Z,19.80
2018-06-10T05:24:05.270Z,19.80
2018-06-10T05:25:05.430Z,19.90
2018-06-10T05:26:04.944Z,19.90
2018-06-10T05:27:05.041Z,19.90
2018-06-10T05:28:04.942Z,20.00
2018-06-10T05:29:05.055Z,20.00
2018-06-10T05:30:05.194Z,20.00
2018-06-10T05:31:04.781Z,20.00
2018-06-10T05:32:05.046Z,20.10
2018-06-10T05:33:04.784Z,20.10
2018-06-10T05:34:05.288Z,20.20
2018-06-10T05:35:05.182Z,20.20
2018-06-10T05:36:06.394Z,20.30
2018-06-10T05:37:05.024Z,20.30
2018-06-10T05:38:05.643Z,20.30
2018-06-10T05:39:04.667Z,20.30
2018-06-10T05:40:04.748Z,20.40
2018-06-10T05:41:05.541Z,20.40
2018-06-10T05:42:05.650Z,20.50
2018-06-10T05:43:05.768Z,20.50
2018-06-10T05:44:05.132Z,20.50
2018-06-10T05:45:04.864Z,20.60
2018-06-10T05:46:05.593Z,20.60
2018-06-10T05:47:05.661Z,20.60
2018-06-10T05:48:05.510Z,20.60
2018-06-10T05:49:05.055Z,20.60
2018-06-10T05:50:04.890Z,20.70
2018-06-10T05:51:05.369Z,20.70
2018-06-10T05:52:04.672Z,20.70
2018-06-10T05:53:05.560Z,20.70
2018-06-10T05:54:05.212Z,20.70
2018-06-10T05:55:04.820Z,20.80
2018-06-10T05:56:05.440Z,20.80
2018-06-10T05:57:04.732Z,20.80
2018-06-10T05:58:04.911Z,20.80
2018-06-10T05:59:04.740Z,20.80
2018-06-10T06:00:04.879Z,20.90
2018-06-10T06:01:04.907Z,20.90
2018-06-10T06:02:04.974Z,20.90
2018-06-10T06:03:04.823Z,20.90
2018-06-10T06:04:04.775Z,21.00
2018-06-10T06:05:05.443Z,21.00
2018-06-10T06:06:04.718Z,21.00
2018-06-10T06:07:04.984Z,21.00
2018-06-10T06:08:04.678Z,21.10
2018-06-10T06:09:05.616Z,21.10
2018-06-10T06:10:05.357Z,21.10
2018-06-10T06:11:05.422Z,21.20
2018-06-10T06:12:05.400Z,21.20
2018-06-10T06:13:05.028Z,21.20
2018-06-10T06:14:04.669Z,21.20
2018-06-10T06:15:05.652Z,21.20
2018-06-10T06:16:05.554Z,21.30
2018-06-10T06:17:04.995Z,21.30
2018-06-10T06:18:05.446Z,21.30
2018-06-10T06:19:05.671Z,21.30
2018-06-10T06:20:05.632Z,21.30
2018-06-10T06:21:04.833Z,21.40
2018-06-10T06:22:04.785Z,21.40
2018-06-10T06:23:04.838Z,21.40
2018-06-10T06:24:04.893Z,21.40
2018-06-10T06:25:04.941Z,21.40
2018-06-10T06:26:04.880Z,21.40
2018-06-10T06:27:05.201Z,21.40
2018-06-10T06:28:05.601Z,21.40
2018-06-10T06:29:05.124Z,21.40
2018-06-10T06:30:05.300Z,21.40
2018-06-10T06:31:04.952Z,21.40
2018-06-10T06:32:04.989Z,21.40
2018-06-10T06:33:04.912Z,21.40
2018-06-10T06:34:05.739Z,21.40
2018-06-10T06:35:05.570Z,21.40
2018-06-10T06:36:05.474Z,21.40
2018-06-10T06:37:05.192Z,21.40
2018-06-10T06:38:05.438Z,21.40
2018-06-10T06:39:05.378Z,21.40
2018-06-10T06:40:05.408Z,21.40
2018-06-10T06:41:05.131Z,21.40
2018-06-10T06:42:05.380Z,21.40
2018-06-10T06:43:05.379Z,21.40
2018-06-10T06:44:05.558Z,21.40
2018-06-10T06:45:05.225Z,21.40
2018-06-10T06:46:04.880Z,21.50
2018-06-10T06:47:04.954Z,21.50
2018-06-10T06:48:04.939Z,21.50
2018-06-10T06:49:05.461Z,21.50
2018-06-10T06:50:05.496Z,21.50
2018-06-10T06:51:05.089Z,21.50
2018-06-10T06:52:05.390Z,21.50
2018-06-10T06:53:05.265Z,21.50
2018-06-10T06:54:05.275Z,21.50
2018-06-10T06:55:05.150Z,21.50
2018-06-10T06:56:04.935Z,21.50
2018-06-10T06:57:04.913Z,21.50
2018-06-10T06:58:05.045Z,21.50
2018-06-10T06:59:05.576Z,21.60
2018-06-10T07:00:04.695Z,21.60
2018-06-10T07:01:05.009Z,21.60
2018-06-10T07:02:04.877Z,21.60
2018-06-10T07:03:05.459Z,21.60
2018-06-10T07:04:05.305Z,21.60
2018-06-10T07:05:04.921Z,21.60
2018-06-10T07:06:04.857Z,21.70
2018-06-10T07:07:04.860Z,21.70
2018-06-10T07:08:04.936Z,21.70
2018-06-10T07:09:04.914Z,21.70
2018-06-10T07:10:05.360Z,21.70
2018-06-10T07:11:05.101Z,21.70
2018-06-10T07:12:04.809Z,21.70
2018-06-10T07:13:05.630Z,21.70
2018-06-10T07:14:04.839Z,21.80
2018-06-10T07:15:04.684Z,21.80
2018-06-10T07:16:05.499Z,21.80
2018-06-10T07:17:05.448Z,21.80
2018-06-10T07:18:05.050Z,21.90
2018-06-10T07:19:04.942Z,21.90
2018-06-10T07:20:04.978Z,21.90
2018-06-10T07:21:05.051Z,21.90
2018-06-10T07:22:05.048Z,22.00
2018-06-10T07:23:05.465Z,22.00
2018-06-10T07:24:05.262Z,22.00
2018-06-10T07:25:04.702Z,22.00
2018-06-10T07:26:05.405Z,22.00
2018-06-10T07:27:05.268Z,22.10
2018-06-10T07:28:05.318Z,22.10
2018-06-10T07:29:05.209Z,22.10
2018-06-10T07:30:05.294Z,22.10
2018-06-10T07:31:05.320Z,22.10
2018-06-10T07:32:04.818Z,22.20
2018-06-10T07:33:06.115Z,22.20
2018-06-10T07:34:05.197Z,22.20
2018-06-10T07:35:04.977Z,22.20
2018-06-10T07:36:05.588Z,22.30
2018-06-10T07:37:05.458Z,22.30
2018-06-10T07:38:05.645Z,22.30
2018-06-10T07:39:05.050Z,22.30
2018-06-10T07:40:05.575Z,22.30
2018-06-10T07:41:04.708Z,22.40
2018-06-10T07:42:05.400Z,22.40
2018-06-10T07:43:05.493Z,22.40
2018-06-10T07:44:05.501Z,22.40
2018-06-10T07:45:05.490Z,22.40
2018-06-10T07:46:05.328Z,22.50
2018-06-10T07:47:05.631Z,22.50
2018-06-10T07:48:06.552Z,22.50
2018-06-10T07:49:05.655Z,22.50
2018-06-10T07:50:04.726Z,22.60
2018-06-10T07:51:05.521Z,22.60
2018-06-10T07:52:05.425Z,22.60
2018-06-10T07:53:05.507Z,22.60
2018-06-10T07:54:05.747Z,22.70
2018-06-10T07:55:05.105Z,22.70
2018-06-10T07:56:05.422Z,22.80
2018-06-10T07:57:05.809Z,22.80
2018-06-10T07:58:04.977Z,22.80
2018-06-10T07:59:05.293Z,22.90
2018-06-10T08:00:05.628Z,22.90
2018-06-10T08:01:05.642Z,22.90
2018-06-10T08:02:05.041Z,23.00
2018-06-10T08:03:05.016Z,23.00
2018-06-10T08:04:04.849Z,23.00
2018-06-10T08:05:05.367Z,23.00
2018-06-10T08:06:05.331Z,23.00
2018-06-10T08:07:04.895Z,23.00
2018-06-10T08:08:04.886Z,23.00
2018-06-10T08:09:05.004Z,23.10
2018-06-10T08:10:04.946Z,23.10
2018-06-10T08:11:05.522Z,23.10
2018-06-10T08:12:04.809Z,23.10
2018-06-10T08:13:04.936Z,23.10
2018-06-10T08:14:04.993Z,23.10
2018-06-10T08:15:04.918Z,23.10
2018-06-10T08:16:05.602Z,23.10
2018-06-10T08:17:05.495Z,23.10
2018-06-10T08:18:05.812Z,23.10
2018-06-10T08:19:05.558Z,23.10
2018-06-10T08:20:04.928Z,23.10
2018-06-10T08:21:05.244Z,23.10
2018-06-10T08:22:05.791Z,23.20
2018-06-10T08:23:05.506Z,23.20
2018-06-10T08:24:04.944Z,23.20
2018-06-10T08:25:05.528Z,23.20
2018-06-10T08:26:04.959Z,23.20
2018-06-10T08:27:05.418Z,23.20
2018-06-10T08:28:04.942Z,23.20
2018-06-10T08:29:05.164Z,23.20
2018-06-10T08:30:05.422Z,23.20
2018-06-10T08:31:05.492Z,23.20
2018-06-10T08:32:05.365Z,23.20
2018-06-10T08:33:05.416Z,23.20
2018-06-10T08:34:05.229Z,23.20
2018-06-10T08:35:04.666Z,23.20
2018-06-10T08:36:05.634Z,23.20
2018-06-10T08:37:05.094Z,23.20
2018-06-10T08:38:04.704Z,23.20
2018-06-10T08:39:04.814Z,23.30
2018-06-10T08:40:04.980Z,23.30
2018-06-10T08:41:04.731Z,23.30
2018-06-10T08:42:04.698Z,23.30
2018-06-10T08:43:05.614Z,23.30
2018-06-10T08:44:05.554Z,23.30
2018-06-10T08:45:04.710Z,23.30
2018-06-10T08:46:05.230Z,23.30
2018-06-10T08:47:04.824Z,23.30
2018-06-10T08:48:05.054Z,23.30
2018-06-10T08:49:04.750Z,23.30
2018-06-10T08:50:04.998Z,23.30
2018-06-10T08:51:04.781Z,23.30
2018-06-10T08:52:04.848Z,23.30
2018-06-10T08:53:05.559Z,23.20
2018-06-10T08:54:04.634Z,23.30
2018-06-10T08:55:04.873Z,23.20
2018-06-10T08:56:04.837Z,23.20
2018-06-10T08:57:04.943Z,23.20
2018-06-10T08:58:04.846Z,23.20
2018-06-10T08:59:05.474Z,23.20
2018-06-10T09:00:05.176Z,23.20
2018-06-10T09:01:04.791Z,23.20
2018-06-10T09:02:04.879Z,23.20
2018-06-10T09:03:04.813Z,23.20
2018-06-10T09:04:04.899Z,23.20
2018-06-10T09:05:05.099Z,23.20
2018-06-10T09:06:05.298Z,23.20
2018-06-10T09:07:05.284Z,23.20
2018-06-10T09:08:05.371Z,23.20
2018-06-10T09:09:05.474Z,23.20
2018-06-10T09:10:05.573Z,23.20
2018-06-10T09:11:05.670Z,23.10
2018-06-10T09:12:06.330Z,23.20
2018-06-10T09:13:05.454Z,23.10
2018-06-10T09:14:05.293Z,23.10
2018-06-10T09:15:04.844Z,23.10
2018-06-10T09:16:05.236Z,23.10
2018-06-10T09:17:05.092Z,23.10
2018-06-10T09:18:04.628Z,23.10
2018-06-10T09:19:04.898Z,23.10
2018-06-10T09:20:04.897Z,23.10
2018-06-10T09:21:05.016Z,23.10
2018-06-10T09:22:04.739Z,23.10
2018-06-10T09:23:04.833Z,23.10
2018-06-10T09:24:04.740Z,23.10
2018-06-10T09:25:05.186Z,23.10
2018-06-10T09:26:05.162Z,23.10
2018-06-10T09:27:05.273Z,23.10
2018-06-10T09:28:05.141Z,23.10
2018-06-10T09:29:05.320Z,23.10
2018-06-10T09:30:04.758Z,23.10
2018-06-10T09:31:05.668Z,23.10
2018-06-10T09:32:05.382Z,23.20
2018-06-10T09:33:05.263Z,23.20
2018-06-10T09:34:04.870Z,23.20
2018-06-10T09:35:04.812Z,23.20
2018-06-10T09:36:05.159Z,23.20
2018-06-10T09:37:04.734Z,23.20
2018-06-10T09:38:05.482Z,23.20
2018-06-10T09:39:05.605Z,23.30
2018-06-10T09:40:05.339Z,23.30
2018-06-10T09:41:05.519Z,23.30
2018-06-10T09:42:05.606Z,23.30
2018-06-10T09:43:05.419Z,23.30
2018-06-10T09:44:05.340Z,23.40
2018-06-10T09:45:05.655Z,23.40
2018-06-10T09:46:05.157Z,23.40
2018-06-10T09:47:05.557Z,23.40
2018-06-10T09:48:05.229Z,23.40
2018-06-10T09:49:05.050Z,23.40
2018-06-10T09:50:05.052Z,23.40
2018-06-10T09:51:05.624Z,23.50
2018-06-10T09:52:04.763Z,23.50
2018-06-10T09:53:04.794Z,23.50
2018-06-10T09:54:04.818Z,23.50
2018-06-10T09:55:05.717Z,23.50
2018-06-10T09:56:05.046Z,23.50
2018-06-10T09:57:04.751Z,23.60
2018-06-10T09:58:04.799Z,23.60
2018-06-10T09:59:05.709Z,23.60
2018-06-10T10:00:05.386Z,23.60
2018-06-10T10:01:05.118Z,23.60
2018-06-10T10:02:05.200Z,23.70
2018-06-10T10:03:05.223Z,23.70
2018-06-10T10:04:04.831Z,23.70
2018-06-10T10:05:04.891Z,23.70
2018-06-10T10:06:04.952Z,23.70
2018-06-10T10:07:04.688Z,23.80
2018-06-10T10:08:05.252Z,23.80
2018-06-10T10:09:05.478Z,23.80
2018-06-10T10:10:05.026Z,23.80
2018-06-10T10:11:05.062Z,23.90
2018-06-10T10:12:05.033Z,23.90
2018-06-10T10:13:04.835Z,23.90
2018-06-10T10:14:04.834Z,24.00
2018-06-10T10:15:04.828Z,24.00
2018-06-10T10:16:04.779Z,24.10
2018-06-10T10:17:05.765Z,24.10
2018-06-10T10:18:05.385Z,24.20
2018-06-10T10:19:05.443Z,24.20
2018-06-10T10:20:05.573Z,24.30
2018-06-10T10:21:05.210Z,24.30
2018-06-10T10:22:04.988Z,24.40
2018-06-10T10:23:05.052Z,24.40
2018-06-10T10:24:05.707Z,24.40
2018-06-10T10:25:06.560Z,24.40
2018-06-10T10:26:04.641Z,24.40
2018-06-10T10:27:04.801Z,24.40
2018-06-10T10:28:04.753Z,24.40
2018-06-10T10:29:04.779Z,24.40
2018-06-10T10:30:05.427Z,24.40
2018-06-10T10:31:05.102Z,24.40
2018-06-10T10:32:05.159Z,24.40
2018-06-10T10:33:05.340Z,24.40
2018-06-10T10:34:04.628Z,24.50
2018-06-10T10:35:04.911Z,24.50
2018-06-10T10:36:04.968Z,24.50
2018-06-10T10:37:04.715Z,24.50
2018-06-10T10:38:04.850Z,24.50
2018-06-10T10:39:04.868Z,24.60
2018-06-10T10:40:05.038Z,24.60
2018-06-10T10:41:05.422Z,24.70
2018-06-10T10:42:04.697Z,24.70
2018-06-10T10:43:04.749Z,24.70
2018-06-10T10:44:04.720Z,24.80
2018-06-10T10:45:05.318Z,24.80
2018-06-10T10:46:05.111Z,24.80
2018-06-10T10:47:05.124Z,24.90
2018-06-10T10:48:05.485Z,24.90
2018-06-10T10:49:05.291Z,25.00
2018-06-10T10:50:04.585Z,25.10
2018-06-10T10:51:05.327Z,25.20
2018-06-10T10:52:05.023Z,25.20
2018-06-10T10:53:05.187Z,25.30
2018-06-10T10:54:04.732Z,25.40
2018-06-10T10:55:05.519Z,25.50
2018-06-10T10:56:05.562Z,25.60
2018-06-10T10:57:05.205Z,25.70
2018-06-10T10:58:05.659Z,25.80
2018-06-10T10:59:10.150Z,25.90
2018-06-10T11:00:05.590Z,26.00
2018-06-10T11:01:05.117Z,26.10
2018-06-10T11:02:04.852Z,26.20
2018-06-10T11:03:04.916Z,26.30
2018-06-10T11:04:05.441Z,26.30
2018-06-10T11:05:04.899Z,26.40
2018-06-10T11:06:04.889Z,26.50
2018-06-10T11:07:05.498Z,26.50
2018-06-10T11:08:04.818Z,26.60
2018-06-10T11:09:05.080Z,26.60
2018-06-10T11:10:05.002Z,26.60
2018-06-10T11:11:05.202Z,26.60
2018-06-10T11:12:05.316Z,26.60
2018-06-10T11:13:04.879Z,26.60
2018-06-10T11:14:04.986Z,26.60
2018-06-10T11:15:05.442Z,26.60
2018-06-10T11:16:05.265Z,26.60
2018-06-10T11:17:05.542Z,26.70
2018-06-10T11:18:05.254Z,26.70
2018-06-10T11:19:05.356Z,26.70
2018-06-10T11:20:04.998Z,26.60
2018-06-10T11:21:05.232Z,26.60
2018-06-10T11:22:04.800Z,26.60
2018-06-10T11:23:05.537Z,26.50
2018-06-10T11:24:05.187Z,26.50
2018-06-10T11:25:05.289Z,26.60
2018-06-10T11:26:05.053Z,26.60
2018-06-10T11:27:05.637Z,26.70
2018-06-10T11:28:05.257Z,26.70
2018-06-10T11:29:05.495Z,26.70
2018-06-10T11:30:05.213Z,26.70
2018-06-10T11:31:05.391Z,26.70
2018-06-10T11:32:05.386Z,26.70
2018-06-10T11:33:05.550Z,26.60
2018-06-10T11:34:04.796Z,26.60
2018-06-10T11:35:05.083Z,26.60
2018-06-10T11:36:04.843Z,26.60
2018-06-10T11:37:04.688Z,26.60
2018-06-10T11:38:05.643Z,26.60
2018-06-10T11:39:04.888Z,26.70
2018-06-10T11:40:05.714Z,26.70
2018-06-10T11:41:05.405Z,26.70
2018-06-10T11:42:05.547Z,26.70
2018-06-10T11:43:05.323Z,26.80
2018-06-10T11:44:05.175Z,26.80
2018-06-10T11:45:05.308Z,26.90
2018-06-10T11:46:05.281Z,26.90
2018-06-10T11:47:09.908Z,26.90
2018-06-10T11:48:05.199Z,26.80
2018-06-10T11:49:05.048Z,26.80
2018-06-10T11:50:04.852Z,26.80
2018-06-10T11:51:04.941Z,26.70
2018-06-10T11:52:04.830Z,26.70
2018-06-10T11:53:04.735Z,26.60
2018-06-10T11:54:05.331Z,26.50
2018-06-10T11:55:04.923Z,26.50
2018-06-10T11:56:04.927Z,26.40
2018-06-10T11:57:05.169Z,26.40
2018-06-10T11:58:05.044Z,26.30
2018-06-10T11:59:04.777Z,26.30
2018-06-10T12:00:05.376Z,26.30
2018-06-10T12:01:04.991Z,26.20
2018-06-10T12:02:04.995Z,26.20
2018-06-10T12:03:05.651Z,26.10
2018-06-10T12:04:05.668Z,26.10
2018-06-10T12:05:05.177Z,26.00
2018-06-10T12:06:05.042Z,26.00
2018-06-10T12:07:05.371Z,25.90
2018-06-10T12:08:05.019Z,25.80
2018-06-10T12:09:04.996Z,25.80
2018-06-10T12:10:05.605Z,25.80
2018-06-10T12:11:05.409Z,25.70
2018-06-10T12:12:05.224Z,25.70
2018-06-10T12:13:05.158Z,25.60
2018-06-10T12:14:05.201Z,25.60
2018-06-10T12:15:04.954Z,25.50
2018-06-10T12:16:04.979Z,25.50
2018-06-10T12:17:04.894Z,25.40
2018-06-10T12:18:04.923Z,25.40
2018-06-10T12:19:05.697Z,25.30
2018-06-10T12:20:05.392Z,25.30
2018-06-10T12:21:05.378Z,25.30
2018-06-10T12:22:05.049Z,25.20
2018-06-10T12:23:05.025Z,25.20
2018-06-10T12:24:04.667Z,25.20
2018-06-10T12:25:05.572Z,25.10
2018-06-10T12:26:05.584Z,25.10
2018-06-10T12:27:05.101Z,25.10
2018-06-10T12:28:04.968Z,25.10
2018-06-10T12:29:04.920Z,25.10
2018-06-10T12:30:05.123Z,25.10
2018-06-10T12:31:05.177Z,25.10
2018-06-10T12:32:05.372Z,25.10
2018-06-10T12:33:04.908Z,25.10
2018-06-10T12:34:05.062Z,25.10
2018-06-10T12:35:05.309Z,25.20
2018-06-10T12:36:04.756Z,25.20
2018-06-10T12:37:05.044Z,25.20
2018-06-10T12:38:05.518Z,25.20
2018-06-10T12:39:05.385Z,25.20
2018-06-10T12:40:05.372Z,25.20
2018-06-10T12:41:05.197Z,25.20
2018-06-10T12:42:04.784Z,25.30
2018-06-10T12:43:05.465Z,25.30
2018-06-10T12:44:05.401Z,25.30
2018-06-10T12:45:05.786Z,25.40
2018-06-10T12:46:05.326Z,25.40
2018-06-10T12:47:05.032Z,25.50
2018-06-10T12:48:04.643Z,25.60
2018-06-10T12:49:05.551Z,25.60
2018-06-10T12:50:05.290Z,25.70
2018-06-10T12:51:04.931Z,25.80
2018-06-10T12:52:05.404Z,25.90